createdAt,value
2019-03-30T00:01:19.448Z,16.33
2019-03-30T00:03:47.860Z,16.63
2019-03-30T00:06:16.281Z,16.13
2019-03-30T00:08:44.688Z,16.13
2019-03-30T00:11:13.104Z,16.37
2019-03-30T00:13:41.513Z,17.27
2019-03-30T00:16:09.935Z,16.17
2019-03-30T00:18:41.184Z,17.47
2019-03-30T00:21:08.564Z,16.30
2019-03-30T00:23:36.976Z,16.47
2019-03-30T00:26:05.385Z,16.33
2019-03-30T00:28:33.792Z,15.60
2019-03-30T00:31:02.204Z,16.27
2019-03-30T00:33:30.622Z,14.93
2019-03-30T00:35:59.023Z,15.63
2019-03-30T00:38:27.452Z,15.40
2019-03-30T00:40:55.854Z,15.67
2019-03-30T00:43:24.272Z,15.27
2019-03-30T00:45:52.682Z,15.30
2019-03-30T00:48:21.100Z,15.83
2019-03-30T00:50:49.502Z,15.87
2019-03-30T00:53:17.914Z,15.37
2019-03-30T00:55:46.336Z,15.53
2019-03-30T00:58:14.755Z,14.90
2019-03-30T01:00:43.172Z,15.23
2019-03-30T01:03:11.579Z,15.23
2019-03-30T01:05:39.996Z,14.60
2019-03-30T01:08:08.407Z,15.40
2019-03-30T01:10:36.824Z,14.93
2019-03-30T01:13:05.240Z,15.10
2019-03-30T01:15:33.647Z,15.13
2019-03-30T01:18:02.072Z,16.00
2019-03-30T01:20:30.480Z,16.10
2019-03-30T01:22:59.169Z,14.60
2019-03-30T01:25:27.644Z,15.67
2019-03-30T01:27:56.135Z,15.40
2019-03-30T01:30:24.542Z,15.27
2019-03-30T01:32:52.959Z,15.60
2019-03-30T01:35:21.524Z,15.43
2019-03-30T01:37:49.955Z,16.27
2019-03-30T01:40:18.379Z,15.53
2019-03-30T01:42:46.780Z,15.37
2019-03-30T01:45:15.193Z,14.90
2019-03-30T01:47:43.612Z,15.30
2019-03-30T01:50:17.789Z,15.17
2019-03-30T01:52:42.494Z,15.93
2019-03-30T01:55:10.976Z,15.73
2019-03-30T01:57:39.398Z,15.30
2019-03-30T02:00:10.214Z,15.27
2019-03-30T02:02:38.703Z,15.73
2019-03-30T02:05:07.458Z,16.53
2019-03-30T02:07:35.861Z,16.03
2019-03-30T02:10:06.322Z,15.17
2019-03-30T02:12:34.733Z,16.53
2019-03-30T02:15:03.514Z,14.87
2019-03-30T02:17:32.084Z,14.57
2019-03-30T02:20:00.567Z,15.23
2019-03-30T02:22:28.987Z,14.10
2019-03-30T02:24:57.418Z,15.13
2019-03-30T02:27:25.833Z,14.63
2019-03-30T02:29:54.244Z,16.63
2019-03-30T02:32:22.652Z,14.97
2019-03-30T02:34:51.074Z,15.67
2019-03-30T02:37:19.489Z,14.33
2019-03-30T02:39:47.910Z,14.57
2019-03-30T02:42:16.384Z,15.57
2019-03-30T02:44:44.796Z,14.50
2019-03-30T02:47:13.220Z,14.53
2019-03-30T02:49:41.641Z,13.17
2019-03-30T02:52:10.056Z,14.80
2019-03-30T02:54:38.469Z,15.10
2019-03-30T02:57:07.021Z,14.30
2019-03-30T02:59:35.449Z,14.73
2019-03-30T03:02:03.988Z,14.27
2019-03-30T03:04:32.402Z,14.87
2019-03-30T03:07:00.909Z,14.37
2019-03-30T03:09:29.387Z,15.13
2019-03-30T03:11:57.813Z,14.00
2019-03-30T03:14:26.216Z,14.93
2019-03-30T03:16:54.649Z,14.37
2019-03-30T03:19:23.057Z,14.50
2019-03-30T03:21:51.472Z,13.63
2019-03-30T03:24:19.887Z,13.80
2019-03-30T03:26:48.304Z,14.00
2019-03-30T03:29:16.783Z,14.40
2019-03-30T03:31:45.217Z,13.90
2019-03-30T03:34:13.641Z,14.33
2019-03-30T03:36:42.050Z,14.10
2019-03-30T03:39:10.457Z,13.67
2019-03-30T03:41:38.936Z,13.23
2019-03-30T03:44:07.357Z,14.07
2019-03-30T03:46:35.773Z,13.83
2019-03-30T03:49:04.176Z,14.03
2019-03-30T03:51:33.234Z,14.30
2019-03-30T03:54:01.789Z,14.53
2019-03-30T03:56:30.499Z,14.27
2019-03-30T03:59:00.047Z,13.80
2019-03-30T04:01:30.204Z,13.63
2019-03-30T04:04:00.364Z,13.43
2019-03-30T04:06:30.390Z,13.90
2019-03-30T04:09:01.404Z,13.53
2019-03-30T04:11:31.751Z,13.60
2019-03-30T04:14:01.487Z,13.43
2019-03-30T04:16:30.056Z,14.37
2019-03-30T04:18:58.472Z,13.37
2019-03-30T04:21:42.982Z,13.07
2019-03-30T04:23:57.020Z,13.87
2019-03-30T04:26:25.495Z,13.60
2019-03-30T04:28:53.918Z,13.80
2019-03-30T04:31:22.327Z,13.53
2019-03-30T04:33:50.736Z,13.23
2019-03-30T04:36:19.135Z,13.60
2019-03-30T04:38:47.562Z,13.60
2019-03-30T04:41:15.970Z,12.87
2019-03-30T04:43:44.392Z,13.43
2019-03-30T04:46:12.800Z,13.63
2019-03-30T04:48:41.220Z,13.70
2019-03-30T04:51:09.656Z,13.23
2019-03-30T04:53:38.075Z,13.63
2019-03-30T04:56:06.496Z,13.03
2019-03-30T04:58:34.912Z,13.70
2019-03-30T05:01:03.322Z,12.73
2019-03-30T05:03:31.740Z,13.37
2019-03-30T05:06:00.137Z,14.07
2019-03-30T05:08:28.546Z,12.80
2019-03-30T05:10:56.963Z,13.27
2019-03-30T05:13:25.388Z,12.87
2019-03-30T05:15:53.791Z,13.03
2019-03-30T05:18:22.212Z,13.20
2019-03-30T05:20:50.625Z,13.00
2019-03-30T05:23:19.122Z,13.87
2019-03-30T05:25:47.520Z,12.83
2019-03-30T05:28:15.936Z,12.53
2019-03-30T05:30:44.344Z,12.50
2019-03-30T05:33:12.764Z,12.57
2019-03-30T05:35:41.172Z,13.67
2019-03-30T05:38:09.584Z,12.77
2019-03-30T05:40:38.010Z,12.93
2019-03-30T05:43:06.502Z,12.93
2019-03-30T05:45:34.908Z,13.17
2019-03-30T05:48:03.333Z,12.73
2019-03-30T05:50:31.812Z,12.77
2019-03-30T05:53:00.211Z,13.43
2019-03-30T05:55:28.619Z,12.30
2019-03-30T05:57:57.041Z,11.90
2019-03-30T06:00:25.812Z,12.30
2019-03-30T06:02:54.232Z,12.27
2019-03-30T06:05:22.635Z,11.50
2019-03-30T06:07:51.171Z,11.57
2019-03-30T06:10:19.579Z,11.70
2019-03-30T06:12:48.004Z,12.23
2019-03-30T06:15:16.413Z,11.90
2019-03-30T06:17:44.859Z,10.50
2019-03-30T06:20:13.633Z,10.43
2019-03-30T06:22:45.201Z,10.30
2019-03-30T06:25:13.604Z,10.37
2019-03-30T06:27:42.010Z,10.50
2019-03-30T06:30:18.498Z,9.80
2019-03-30T06:32:46.909Z,9.77
2019-03-30T06:35:15.399Z,10.07
2019-03-30T06:37:43.876Z,9.17
2019-03-30T06:40:12.525Z,9.93
2019-03-30T06:42:40.930Z,9.03
2019-03-30T06:45:12.918Z,10.17
2019-03-30T06:47:41.924Z,9.70
2019-03-30T06:50:10.636Z,9.43
2019-03-30T06:52:42.662Z,9.37
2019-03-30T06:55:11.015Z,9.00
2019-03-30T06:57:39.411Z,8.47
2019-03-30T07:00:08.870Z,8.70
2019-03-30T07:02:37.337Z,8.57
2019-03-30T07:05:07.590Z,8.43
2019-03-30T07:07:37.642Z,8.60
2019-03-30T07:10:06.298Z,8.80
2019-03-30T07:12:37.780Z,8.70
2019-03-30T07:15:06.369Z,8.87
2019-03-30T07:17:37.925Z,7.90
2019-03-30T07:20:09.410Z,8.53
2019-03-30T07:22:37.818Z,8.70
2019-03-30T07:25:06.310Z,8.20
2019-03-30T07:27:34.709Z,8.80
2019-03-30T07:30:03.585Z,8.57
2019-03-30T07:32:32.012Z,9.07
2019-03-30T07:35:00.448Z,9.00
2019-03-30T07:37:28.909Z,8.53
2019-03-30T07:39:57.313Z,9.50
2019-03-30T07:42:26.278Z,9.47
2019-03-30T07:44:54.915Z,8.50
2019-03-30T07:47:23.320Z,8.33
2019-03-30T07:49:51.729Z,9.83
2019-03-30T07:52:20.210Z,9.13
2019-03-30T07:54:48.611Z,9.43
2019-03-30T07:57:17.545Z,9.97
2019-03-30T07:59:46.113Z,9.73
2019-03-30T08:02:14.532Z,10.67
2019-03-30T08:04:43.290Z,12.13
2019-03-30T08:07:11.688Z,11.67
2019-03-30T08:09:40.136Z,13.43
2019-03-30T08:12:08.541Z,12.10
2019-03-30T08:14:36.955Z,11.93
2019-03-30T08:17:05.372Z,13.07
2019-03-30T08:19:33.777Z,11.67
2019-03-30T08:22:02.196Z,11.57
2019-03-30T08:24:30.608Z,12.20
2019-03-30T08:26:59.026Z,13.10
2019-03-30T08:29:27.503Z,12.47
2019-03-30T08:31:56.074Z,12.80
2019-03-30T08:34:24.555Z,11.87
2019-03-30T08:36:52.967Z,12.37
2019-03-30T08:39:21.395Z,11.97
2019-03-30T08:41:49.831Z,12.10
2019-03-30T08:44:18.249Z,12.83
2019-03-30T08:46:46.670Z,12.00
2019-03-30T08:49:15.083Z,13.33
2019-03-30T08:51:43.499Z,13.17
2019-03-30T08:54:11.994Z,15.57
2019-03-30T08:56:40.414Z,12.40
2019-03-30T08:59:08.828Z,12.53
2019-03-30T09:01:37.240Z,12.43
2019-03-30T09:04:05.661Z,12.13
2019-03-30T09:06:34.088Z,12.50
2019-03-30T09:09:02.495Z,13.03
2019-03-30T09:11:30.914Z,13.53
2019-03-30T09:13:59.336Z,13.27
2019-03-30T09:16:27.887Z,13.27
2019-03-30T09:18:56.286Z,13.33
2019-03-30T09:21:24.699Z,14.47
2019-03-30T09:23:53.120Z,14.77
2019-03-30T09:26:21.532Z,14.33
2019-03-30T09:28:49.969Z,13.70
2019-03-30T09:31:18.386Z,13.90
2019-03-30T09:33:46.809Z,13.97
2019-03-30T09:36:15.302Z,14.73
2019-03-30T09:38:43.724Z,14.80
2019-03-30T09:41:12.139Z,14.17
2019-03-30T09:43:40.576Z,14.37
2019-03-30T09:46:08.978Z,14.33
2019-03-30T09:48:37.407Z,13.63
2019-03-30T09:51:05.832Z,13.13
2019-03-30T09:53:34.239Z,14.47
2019-03-30T09:56:02.772Z,13.90
2019-03-30T09:58:31.252Z,14.20
2019-03-30T10:00:59.683Z,14.73
2019-03-30T10:03:28.120Z,14.80
2019-03-30T10:05:56.549Z,14.03
2019-03-30T10:08:24.961Z,14.47
2019-03-30T10:10:54.227Z,14.47
2019-03-30T10:13:22.699Z,14.10
2019-03-30T10:15:51.131Z,14.33
2019-03-30T10:18:19.539Z,14.20
2019-03-30T10:20:47.955Z,14.27
2019-03-30T10:23:16.370Z,14.37
2019-03-30T10:25:44.863Z,14.20
2019-03-30T10:28:13.289Z,14.90
2019-03-30T10:30:44.419Z,13.67
2019-03-30T10:33:12.851Z,14.03
2019-03-30T10:35:41.267Z,14.77
2019-03-30T10:38:09.710Z,15.13
2019-03-30T10:40:38.192Z,14.37
2019-03-30T10:43:06.663Z,14.50
2019-03-30T10:45:35.154Z,13.67
2019-03-30T10:48:04.761Z,12.83
2019-03-30T10:50:33.188Z,13.70
2019-03-30T10:53:01.679Z,14.63
2019-03-30T10:55:30.104Z,15.17
2019-03-30T10:57:58.906Z,12.63
2019-03-30T11:00:38.608Z,12.17
2019-03-30T11:03:07.166Z,13.47
2019-03-30T11:05:35.761Z,14.50
2019-03-30T11:08:04.421Z,13.37
2019-03-30T11:10:32.896Z,13.60
2019-03-30T11:13:01.311Z,13.17
2019-03-30T11:15:29.805Z,13.30
2019-03-30T11:17:58.216Z,13.90
2019-03-30T11:20:26.635Z,13.33
2019-03-30T11:22:55.109Z,13.97
2019-03-30T11:25:23.511Z,14.20
2019-03-30T11:27:51.938Z,14.43
2019-03-30T11:30:20.350Z,14.83
2019-03-30T11:32:48.773Z,14.87
2019-03-30T11:35:17.187Z,14.00
2019-03-30T11:37:45.618Z,14.57
2019-03-30T11:40:14.100Z,14.00
2019-03-30T11:42:42.546Z,13.37
2019-03-30T11:45:11.095Z,13.17
2019-03-30T11:47:39.532Z,13.13
2019-03-30T11:50:08.207Z,12.73
2019-03-30T11:52:36.626Z,12.50
2019-03-30T11:55:20.675Z,12.10
2019-03-30T11:57:37.125Z,12.30
2019-03-30T12:00:06.884Z,13.43
2019-03-30T12:02:35.299Z,13.37
2019-03-30T12:05:04.952Z,13.47
2019-03-30T12:07:33.359Z,12.60
2019-03-30T12:10:01.779Z,12.93
2019-03-30T12:12:30.199Z,12.57
2019-03-30T12:14:58.619Z,11.57
2019-03-30T12:17:27.043Z,11.57
2019-03-30T12:19:55.460Z,13.27
2019-03-30T12:22:23.896Z,12.93
2019-03-30T12:24:52.316Z,12.83
2019-03-30T12:27:20.989Z,14.33
2019-03-30T12:29:49.391Z,14.27
2019-03-30T12:32:17.827Z,13.87
2019-03-30T12:34:46.243Z,14.77
2019-03-30T12:37:14.740Z,14.27
2019-03-30T12:39:43.163Z,14.57
2019-03-30T12:42:11.587Z,14.60
2019-03-30T12:44:40.080Z,15.33
2019-03-30T12:47:10.397Z,14.47
2019-03-30T12:49:38.639Z,13.83
2019-03-30T12:52:07.064Z,14.73
2019-03-30T12:54:35.493Z,13.67
2019-03-30T12:57:03.911Z,14.90
2019-03-30T12:59:32.324Z,14.30
2019-03-30T13:02:00.753Z,15.00
2019-03-30T13:04:29.172Z,15.43
2019-03-30T13:06:57.608Z,13.97
2019-03-30T13:09:26.019Z,16.37
2019-03-30T13:11:54.469Z,15.73
2019-03-30T13:14:22.878Z,15.77
2019-03-30T13:16:51.303Z,15.07
2019-03-30T13:19:19.738Z,15.43
2019-03-30T13:21:52.822Z,16.50
2019-03-30T13:24:18.283Z,16.50
2019-03-30T13:26:46.708Z,16.27
2019-03-30T13:29:15.123Z,16.20
2019-03-30T13:31:43.552Z,15.73
2019-03-30T13:34:11.987Z,15.93
2019-03-30T13:36:43.503Z,16.30
2019-03-30T13:39:12.144Z,15.77
2019-03-30T13:41:40.556Z,14.43
2019-03-30T13:44:09.028Z,14.53
2019-03-30T13:46:37.513Z,15.00
2019-03-30T13:49:05.929Z,14.60
2019-03-30T13:51:34.353Z,13.07
2019-03-30T13:54:02.769Z,14.60
2019-03-30T13:56:31.178Z,14.90
2019-03-30T13:58:59.617Z,16.53
2019-03-30T14:01:28.033Z,15.60
2019-03-30T14:03:56.469Z,16.37
2019-03-30T14:06:24.880Z,16.27
2019-03-30T14:08:53.304Z,16.60
2019-03-30T14:11:21.715Z,17.33
2019-03-30T14:13:50.144Z,15.67
2019-03-30T14:16:18.556Z,15.50
2019-03-30T14:18:46.985Z,16.57
2019-03-30T14:21:15.397Z,17.03
2019-03-30T14:23:43.823Z,15.83
2019-03-30T14:26:12.308Z,16.47
2019-03-30T14:28:40.793Z,15.97
2019-03-30T14:31:09.222Z,15.90
2019-03-30T14:33:37.642Z,17.10
2019-03-30T14:36:06.074Z,15.70
2019-03-30T14:38:34.560Z,15.80
2019-03-30T14:41:03.971Z,15.73
2019-03-30T14:43:32.581Z,16.80
2019-03-30T14:46:01.056Z,14.97
2019-03-30T14:48:29.484Z,15.27
2019-03-30T14:50:57.890Z,14.73
2019-03-30T14:53:26.447Z,14.37
2019-03-30T14:55:54.903Z,16.37
2019-03-30T14:58:23.398Z,13.70
2019-03-30T15:00:51.808Z,14.93
2019-03-30T15:03:20.231Z,14.57
2019-03-30T15:05:48.651Z,14.57
2019-03-30T15:08:17.079Z,13.80
2019-03-30T15:10:45.556Z,14.87
2019-03-30T15:13:13.984Z,13.83
2019-03-30T15:15:42.409Z,13.73
2019-03-30T15:18:10.898Z,13.60
2019-03-30T15:20:39.318Z,12.67
2019-03-30T15:23:07.732Z,13.20
2019-03-30T15:25:36.152Z,13.83
2019-03-30T15:28:04.565Z,13.63
2019-03-30T15:30:33.071Z,13.83
2019-03-30T15:33:03.423Z,13.77
2019-03-30T15:35:31.625Z,13.03
2019-03-30T15:38:00.036Z,14.07
2019-03-30T15:40:28.457Z,13.30
2019-03-30T15:42:56.871Z,13.67
2019-03-30T15:45:25.287Z,13.63
2019-03-30T15:47:53.716Z,13.90
2019-03-30T15:50:22.119Z,14.67
2019-03-30T15:52:50.538Z,13.57
2019-03-30T15:55:18.948Z,14.17
2019-03-30T15:57:47.372Z,13.57
2019-03-30T16:00:17.004Z,14.17
2019-03-30T16:02:45.504Z,14.40
2019-03-30T16:05:15.739Z,14.33
2019-03-30T16:07:44.443Z,14.33
2019-03-30T16:10:13.495Z,14.20
2019-03-30T16:12:41.908Z,12.90
2019-03-30T16:15:10.501Z,13.27
2019-03-30T16:17:38.923Z,13.63
2019-03-30T16:20:07.672Z,12.50
2019-03-30T16:22:36.099Z,14.07
2019-03-30T16:25:06.426Z,13.07
2019-03-30T16:27:34.920Z,13.10
2019-03-30T16:30:04.679Z,12.70
2019-03-30T16:32:33.095Z,12.77
2019-03-30T16:35:01.500Z,13.57
2019-03-30T16:37:29.938Z,13.63
2019-03-30T16:39:58.353Z,12.13
2019-03-30T16:42:26.779Z,13.70
2019-03-30T16:44:55.205Z,14.73
2019-03-30T16:47:23.615Z,14.73
2019-03-30T16:49:52.030Z,15.00
2019-03-30T16:52:20.451Z,16.20
2019-03-30T16:54:48.892Z,16.97
2019-03-30T16:57:17.310Z,17.70
2019-03-30T16:59:45.716Z,18.10
2019-03-30T17:02:14.190Z,16.60
2019-03-30T17:04:42.624Z,17.00
2019-03-30T17:07:11.047Z,17.13
2019-03-30T17:09:39.458Z,17.13
2019-03-30T17:12:07.882Z,17.43
2019-03-30T17:14:36.300Z,18.10
2019-03-30T17:17:04.732Z,17.73
2019-03-30T17:19:33.143Z,17.33
2019-03-30T17:22:01.587Z,16.07
2019-03-30T17:24:29.991Z,18.07
2019-03-30T17:26:58.411Z,17.57
2019-03-30T17:29:26.827Z,19.70
2019-03-30T17:31:55.252Z,22.47
2019-03-30T17:34:23.663Z,27.10
2019-03-30T17:36:52.088Z,20.37
2019-03-30T17:39:20.577Z,17.27
2019-03-30T17:41:49.078Z,17.13
2019-03-30T17:44:17.484Z,16.63
2019-03-30T17:46:45.920Z,17.07
2019-03-30T17:49:14.323Z,17.33
2019-03-30T17:51:42.765Z,16.87
2019-03-30T17:54:11.239Z,17.93
2019-03-30T17:56:39.674Z,24.60
2019-03-30T17:59:08.084Z,18.67
2019-03-30T18:01:36.516Z,18.57
2019-03-30T18:04:05.001Z,20.63
2019-03-30T18:06:33.422Z,21.00
2019-03-30T18:09:01.845Z,19.37
2019-03-30T18:11:30.280Z,19.77
2019-03-30T18:13:58.710Z,19.10
2019-03-30T18:16:27.198Z,18.43
2019-03-30T18:18:55.623Z,18.17
2019-03-30T18:21:24.033Z,17.83
2019-03-30T18:23:52.456Z,18.37
2019-03-30T18:26:20.863Z,17.43
2019-03-30T18:28:49.290Z,18.87
2019-03-30T18:31:18.231Z,19.23
2019-03-30T18:33:46.664Z,18.97
2019-03-30T18:36:17.319Z,22.10
2019-03-30T18:38:47.201Z,23.83
2019-03-30T18:41:15.613Z,27.17
2019-03-30T18:43:44.032Z,25.13
2019-03-30T18:46:12.460Z,27.10
2019-03-30T18:48:40.878Z,27.93
2019-03-30T18:51:09.363Z,23.80
2019-03-30T18:53:37.907Z,21.97
2019-03-30T18:56:06.329Z,24.90
2019-03-30T18:58:41.509Z,25.43
2019-03-30T19:01:04.964Z,29.00
2019-03-30T19:03:33.376Z,30.10
2019-03-30T19:06:02.240Z,33.20
2019-03-30T19:08:30.643Z,25.90
2019-03-30T19:10:59.074Z,25.00
2019-03-30T19:13:27.492Z,24.57
2019-03-30T19:15:55.905Z,27.80
2019-03-30T19:18:24.319Z,27.57
2019-03-30T19:20:52.743Z,28.80
2019-03-30T19:23:21.151Z,28.30
2019-03-30T19:25:49.580Z,31.73
2019-03-30T19:28:17.994Z,30.13
2019-03-30T19:30:46.418Z,28.60
2019-03-30T19:33:14.831Z,26.03
2019-03-30T19:35:43.255Z,28.37
2019-03-30T19:38:11.690Z,29.63
2019-03-30T19:40:40.176Z,26.33
2019-03-30T19:43:08.594Z,25.10
2019-03-30T19:45:37.018Z,25.63
2019-03-30T19:48:05.424Z,24.80
2019-03-30T19:50:33.848Z,26.07
2019-03-30T19:53:02.270Z,23.93
2019-03-30T19:55:30.694Z,24.27
2019-03-30T19:57:59.104Z,24.20
2019-03-30T20:00:27.607Z,26.70
2019-03-30T20:02:56.011Z,24.43
2019-03-30T20:05:24.515Z,22.13
2019-03-30T20:07:52.928Z,21.80
2019-03-30T20:10:21.412Z,22.30
2019-03-30T20:12:49.831Z,22.47
2019-03-30T20:15:18.317Z,21.57
2019-03-30T20:17:46.747Z,21.37
2019-03-30T20:20:15.464Z,22.03
2019-03-30T20:22:43.992Z,21.27
2019-03-30T20:25:12.492Z,21.20
2019-03-30T20:27:40.892Z,20.93
2019-03-30T20:30:11.955Z,20.93
2019-03-30T20:32:43.036Z,20.60
2019-03-30T20:35:10.663Z,21.77
2019-03-30T20:37:39.067Z,20.07
2019-03-30T20:40:10.115Z,20.50
2019-03-30T20:42:38.603Z,19.07
2019-03-30T20:45:07.443Z,20.30
2019-03-30T20:47:35.862Z,20.27
2019-03-30T20:50:06.210Z,20.33
2019-03-30T20:52:34.624Z,20.93
2019-03-30T20:55:03.208Z,20.23
2019-03-30T20:57:31.645Z,18.90
2019-03-30T21:00:00.337Z,19.60
2019-03-30T21:02:28.821Z,19.60
2019-03-30T21:04:57.227Z,19.27
2019-03-30T21:07:25.660Z,19.67
2019-03-30T21:09:54.072Z,20.13
2019-03-30T21:12:22.495Z,18.63
2019-03-30T21:14:50.908Z,19.33
2019-03-30T21:17:19.323Z,19.87
2019-03-30T21:19:47.728Z,19.20
2019-03-30T21:22:16.149Z,19.50
2019-03-30T21:24:44.555Z,19.47
2019-03-30T21:27:12.991Z,18.07
2019-03-30T21:29:54.032Z,19.20
2019-03-30T21:32:11.551Z,19.33
2019-03-30T21:34:39.957Z,19.40
2019-03-30T21:37:08.375Z,19.33
2019-03-30T21:39:36.793Z,18.33
2019-03-30T21:42:05.277Z,17.40
2019-03-30T21:44:33.863Z,17.77
2019-03-30T21:47:02.271Z,17.20
2019-03-30T21:49:31.054Z,17.43
2019-03-30T21:51:59.683Z,17.83
2019-03-30T21:54:28.102Z,17.47
2019-03-30T21:56:56.508Z,17.80
2019-03-30T21:59:24.935Z,16.73
2019-03-30T22:01:53.345Z,16.57
2019-03-30T22:04:21.764Z,18.60
2019-03-30T22:06:50.177Z,17.97
2019-03-30T22:09:18.604Z,17.00
2019-03-30T22:11:47.012Z,16.87
2019-03-30T22:14:15.436Z,17.37
2019-03-30T22:16:43.869Z,16.83
2019-03-30T22:19:12.284Z,17.30
2019-03-30T22:21:40.700Z,15.83
2019-03-30T22:24:09.116Z,16.50
2019-03-30T22:26:37.524Z,16.30
2019-03-30T22:29:05.933Z,16.07
2019-03-30T22:31:34.352Z,16.30
2019-03-30T22:34:02.763Z,15.33
2019-03-30T22:36:31.196Z,15.30
2019-03-30T22:38:59.592Z,15.90
2019-03-30T22:41:28.007Z,15.57
2019-03-30T22:43:56.453Z,14.67
2019-03-30T22:46:24.868Z,15.67
2019-03-30T22:48:53.370Z,14.53
2019-03-30T22:51:21.783Z,14.87
2019-03-30T22:53:50.204Z,14.47
2019-03-30T22:56:18.688Z,14.17
2019-03-30T22:58:47.175Z,14.20
2019-03-30T23:01:17.228Z,15.00
2019-03-30T23:03:45.695Z,14.77
2019-03-30T23:06:14.112Z,14.27
2019-03-30T23:08:42.532Z,14.57
2019-03-30T23:11:10.960Z,14.03
2019-03-30T23:13:39.375Z,14.00
2019-03-30T23:16:07.797Z,14.47
2019-03-30T23:18:36.211Z,13.40
2019-03-30T23:21:04.622Z,13.67
2019-03-30T23:23:33.039Z,14.13
2019-03-30T23:26:01.469Z,13.50
2019-03-30T23:28:29.868Z,13.93
2019-03-30T23:30:58.472Z,12.73
2019-03-30T23:33:26.875Z,14.10
2019-03-30T23:35:55.307Z,13.30
2019-03-30T23:38:23.716Z,13.97
2019-03-30T23:40:52.130Z,14.87
2019-03-30T23:43:20.607Z,13.53
2019-03-30T23:45:49.035Z,13.87
2019-03-30T23:48:17.460Z,13.30
2019-03-30T23:50:45.864Z,13.03
2019-03-30T23:53:14.283Z,13.40
2019-03-30T23:55:42.701Z,14.13
2019-03-30T23:58:11.121Z,13.77
